sensor_id;sensor_type;location;lat;lon;timestamp;P1;durP1;ratioP1;P2;durP2;ratioP2
66087;SDS011;52872;52.994;6.940;2023-02-05T00:01:43;10.48;;;7.78;;
66087;SDS011;52872;52.994;6.940;2023-02-05T00:04:10;9.70;;;7.45;;
66087;SDS011;52872;52.994;6.940;2023-02-05T00:06:37;10.13;;;7.90;;
66087;SDS011;52872;52.994;6.940;2023-02-05T00:09:04;9.55;;;8.18;;
66087;SDS011;52872;52.994;6.940;2023-02-05T00:11:31;9.15;;;8.02;;
66087;SDS011;52872;52.994;6.940;2023-02-05T00:13:58;9.40;;;7.80;;
66087;SDS011;52872;52.994;6.940;2023-02-05T00:16:25;11.88;;;8.40;;
66087;SDS011;52872;52.994;6.940;2023-02-05T00:18:52;9.15;;;8.20;;
66087;SDS011;52872;52.994;6.940;2023-02-05T00:21:20;9.82;;;7.85;;
66087;SDS011;52872;52.994;6.940;2023-02-05T00:23:48;9.18;;;8.10;;
66087;SDS011;52872;52.994;6.940;2023-02-05T00:26:15;9.95;;;8.00;;
66087;SDS011;52872;52.994;6.940;2023-02-05T00:28:43;9.55;;;8.05;;
66087;SDS011;52872;52.994;6.940;2023-02-05T00:31:14;10.40;;;8.00;;
66087;SDS011;52872;52.994;6.940;2023-02-05T00:33:44;11.95;;;9.27;;
66087;SDS011;52872;52.994;6.940;2023-02-05T00:36:11;9.45;;;8.18;;
66087;SDS011;52872;52.994;6.940;2023-02-05T00:38:40;8.93;;;8.02;;
66087;SDS011;52872;52.994;6.940;2023-02-05T00:41:07;8.57;;;7.57;;
66087;SDS011;52872;52.994;6.940;2023-02-05T00:43:36;10.65;;;8.45;;
66087;SDS011;52872;52.994;6.940;2023-02-05T00:46:09;9.73;;;8.20;;
66087;SDS011;52872;52.994;6.940;2023-02-05T00:48:40;9.90;;;7.78;;
66087;SDS011;52872;52.994;6.940;2023-02-05T00:51:07;9.18;;;8.10;;
66087;SDS011;52872;52.994;6.940;2023-02-05T00:53:35;8.85;;;7.95;;
66087;SDS011;52872;52.994;6.940;2023-02-05T00:56:03;9.52;;;7.13;;
66087;SDS011;52872;52.994;6.940;2023-02-05T00:58:30;9.40;;;8.13;;
66087;SDS011;52872;52.994;6.940;2023-02-05T01:00:57;9.63;;;8.07;;
66087;SDS011;52872;52.994;6.940;2023-02-05T01:03:27;9.23;;;8.05;;
66087;SDS011;52872;52.994;6.940;2023-02-05T01:05:54;8.73;;;7.82;;
66087;SDS011;52872;52.994;6.940;2023-02-05T01:08:22;8.95;;;7.78;;
66087;SDS011;52872;52.994;6.940;2023-02-05T01:10:49;10.77;;;8.05;;
66087;SDS011;52872;52.994;6.940;2023-02-05T01:13:17;9.75;;;7.78;;
66087;SDS011;52872;52.994;6.940;2023-02-05T01:15:44;8.85;;;7.63;;
66087;SDS011;52872;52.994;6.940;2023-02-05T01:18:12;10.93;;;8.68;;
66087;SDS011;52872;52.994;6.940;2023-02-05T01:20:42;9.77;;;8.52;;
66087;SDS011;52872;52.994;6.940;2023-02-05T01:23:10;9.07;;;8.18;;
66087;SDS011;52872;52.994;6.940;2023-02-05T01:25:37;10.10;;;8.55;;
66087;SDS011;52872;52.994;6.940;2023-02-05T01:28:04;9.93;;;8.77;;
66087;SDS011;52872;52.994;6.940;2023-02-05T01:30:32;10.30;;;9.02;;
66087;SDS011;52872;52.994;6.940;2023-02-05T01:32:59;9.32;;;8.27;;
66087;SDS011;52872;52.994;6.940;2023-02-05T01:35:27;12.15;;;8.45;;
66087;SDS011;52872;52.994;6.940;2023-02-05T01:37:54;10.85;;;8.57;;
66087;SDS011;52872;52.994;6.940;2023-02-05T01:40:21;9.98;;;8.32;;
66087;SDS011;52872;52.994;6.940;2023-02-05T01:42:48;10.63;;;9.48;;
66087;SDS011;52872;52.994;6.940;2023-02-05T01:47:49;12.07;;;9.32;;
66087;SDS011;52872;52.994;6.940;2023-02-05T01:50:38;10.45;;;9.02;;
66087;SDS011;52872;52.994;6.940;2023-02-05T01:53:12;13.60;;;9.43;;
66087;SDS011;52872;52.994;6.940;2023-02-05T01:55:47;12.88;;;9.77;;
66087;SDS011;52872;52.994;6.940;2023-02-05T01:58:28;11.50;;;8.95;;
66087;SDS011;52872;52.994;6.940;2023-02-05T02:00:58;9.32;;;8.43;;
66087;SDS011;52872;52.994;6.940;2023-02-05T02:03:25;11.00;;;9.05;;
66087;SDS011;52872;52.994;6.940;2023-02-05T02:05:55;14.90;;;9.82;;
66087;SDS011;52872;52.994;6.940;2023-02-05T02:08:22;12.30;;;8.82;;
66087;SDS011;52872;52.994;6.940;2023-02-05T02:10:50;13.50;;;9.30;;
66087;SDS011;52872;52.994;6.940;2023-02-05T02:13:19;14.18;;;8.93;;
66087;SDS011;52872;52.994;6.940;2023-02-05T02:15:48;12.55;;;9.48;;
66087;SDS011;52872;52.994;6.940;2023-02-05T02:18:15;11.05;;;8.82;;
66087;SDS011;52872;52.994;6.940;2023-02-05T02:29:01;10.55;;;9.45;;
66087;SDS011;52872;52.994;6.940;2023-02-05T02:31:30;12.20;;;9.02;;
66087;SDS011;52872;52.994;6.940;2023-02-05T02:36:57;16.33;;;9.43;;
66087;SDS011;52872;52.994;6.940;2023-02-05T02:39:39;11.40;;;8.90;;
66087;SDS011;52872;52.994;6.940;2023-02-05T02:42:12;12.25;;;9.38;;
66087;SDS011;52872;52.994;6.940;2023-02-05T02:44:55;14.68;;;10.20;;
66087;SDS011;52872;52.994;6.940;2023-02-05T02:47:27;15.30;;;10.07;;
66087;SDS011;52872;52.994;6.940;2023-02-05T02:50:03;16.20;;;10.50;;
66087;SDS011;52872;52.994;6.940;2023-02-05T02:52:39;14.63;;;10.70;;
66087;SDS011;52872;52.994;6.940;2023-02-05T02:55:10;14.70;;;9.60;;
66087;SDS011;52872;52.994;6.940;2023-02-05T02:57:42;13.75;;;10.20;;
66087;SDS011;52872;52.994;6.940;2023-02-05T03:00:12;13.80;;;10.57;;
66087;SDS011;52872;52.994;6.940;2023-02-05T03:02:46;15.43;;;10.90;;
66087;SDS011;52872;52.994;6.940;2023-02-05T03:05:17;12.70;;;10.57;;
66087;SDS011;52872;52.994;6.940;2023-02-05T03:07:48;16.55;;;10.80;;
66087;SDS011;52872;52.994;6.940;2023-02-05T03:10:25;15.45;;;10.30;;
66087;SDS011;52872;52.994;6.940;2023-02-05T03:13:21;15.85;;;10.93;;
66087;SDS011;52872;52.994;6.940;2023-02-05T03:15:54;18.73;;;11.90;;
66087;SDS011;52872;52.994;6.940;2023-02-05T03:18:22;18.20;;;11.88;;
66087;SDS011;52872;52.994;6.940;2023-02-05T03:20:51;18.00;;;11.55;;
66087;SDS011;52872;52.994;6.940;2023-02-05T03:23:22;19.63;;;12.15;;
66087;SDS011;52872;52.994;6.940;2023-02-05T03:25:51;16.13;;;11.80;;
66087;SDS011;52872;52.994;6.940;2023-02-05T03:28:24;18.02;;;10.55;;
66087;SDS011;52872;52.994;6.940;2023-02-05T03:36:16;18.08;;;12.10;;
66087;SDS011;52872;52.994;6.940;2023-02-05T03:42:07;19.05;;;12.45;;
66087;SDS011;52872;52.994;6.940;2023-02-05T03:53:08;25.38;;;12.77;;
66087;SDS011;52872;52.994;6.940;2023-02-05T03:55:52;23.20;;;12.60;;
66087;SDS011;52872;52.994;6.940;2023-02-05T03:58:28;18.92;;;13.57;;
66087;SDS011;52872;52.994;6.940;2023-02-05T04:01:19;23.98;;;13.60;;
66087;SDS011;52872;52.994;6.940;2023-02-05T04:03:47;29.23;;;15.48;;
66087;SDS011;52872;52.994;6.940;2023-02-05T04:06:14;27.42;;;13.43;;
66087;SDS011;52872;52.994;6.940;2023-02-05T04:08:43;24.50;;;13.30;;
66087;SDS011;52872;52.994;6.940;2023-02-05T04:11:10;24.52;;;13.93;;
66087;SDS011;52872;52.994;6.940;2023-02-05T04:13:38;28.05;;;14.30;;
66087;SDS011;52872;52.994;6.940;2023-02-05T04:16:08;21.67;;;14.38;;
66087;SDS011;52872;52.994;6.940;2023-02-05T04:18:35;30.83;;;14.65;;
66087;SDS011;52872;52.994;6.940;2023-02-05T04:21:02;25.83;;;14.38;;
66087;SDS011;52872;52.994;6.940;2023-02-05T04:23:31;31.42;;;15.27;;
66087;SDS011;52872;52.994;6.940;2023-02-05T04:25:59;30.25;;;15.40;;
66087;SDS011;52872;52.994;6.940;2023-02-05T04:28:33;27.20;;;13.57;;
66087;SDS011;52872;52.994;6.940;2023-02-05T04:31:05;28.10;;;14.52;;
66087;SDS011;52872;52.994;6.940;2023-02-05T04:33:38;31.90;;;16.20;;
66087;SDS011;52872;52.994;6.940;2023-02-05T04:36:07;29.23;;;15.70;;
66087;SDS011;52872;52.994;6.940;2023-02-05T04:38:35;29.65;;;16.60;;
66087;SDS011;52872;52.994;6.940;2023-02-05T04:41:02;31.90;;;15.25;;
66087;SDS011;52872;52.994;6.940;2023-02-05T04:43:29;23.15;;;15.20;;
66087;SDS011;52872;52.994;6.940;2023-02-05T04:45:56;34.75;;;16.77;;
66087;SDS011;52872;52.994;6.940;2023-02-05T04:48:23;30.48;;;17.13;;
66087;SDS011;52872;52.994;6.940;2023-02-05T04:50:50;30.45;;;17.42;;
66087;SDS011;52872;52.994;6.940;2023-02-05T04:53:17;40.38;;;17.88;;
66087;SDS011;52872;52.994;6.940;2023-02-05T04:55:44;39.78;;;17.00;;
66087;SDS011;52872;52.994;6.940;2023-02-05T04:58:11;42.80;;;18.13;;
66087;SDS011;52872;52.994;6.940;2023-02-05T05:00:38;39.42;;;18.02;;
66087;SDS011;52872;52.994;6.940;2023-02-05T05:03:05;44.80;;;18.48;;
66087;SDS011;52872;52.994;6.940;2023-02-05T05:05:35;54.00;;;20.85;;
66087;SDS011;52872;52.994;6.940;2023-02-05T05:08:02;47.72;;;19.73;;
66087;SDS011;52872;52.994;6.940;2023-02-05T05:10:29;60.20;;;20.90;;
66087;SDS011;52872;52.994;6.940;2023-02-05T05:12:56;54.95;;;21.88;;
66087;SDS011;52872;52.994;6.940;2023-02-05T05:15:23;59.67;;;21.55;;
66087;SDS011;52872;52.994;6.940;2023-02-05T05:17:50;51.55;;;19.65;;
66087;SDS011;52872;52.994;6.940;2023-02-05T05:20:17;60.13;;;21.70;;
66087;SDS011;52872;52.994;6.940;2023-02-05T05:22:44;48.92;;;20.70;;
66087;SDS011;52872;52.994;6.940;2023-02-05T05:25:11;52.35;;;20.25;;
66087;SDS011;52872;52.994;6.940;2023-02-05T05:27:38;53.92;;;21.88;;
66087;SDS011;52872;52.994;6.940;2023-02-05T05:30:06;49.40;;;21.63;;
66087;SDS011;52872;52.994;6.940;2023-02-05T05:32:33;50.40;;;19.90;;
66087;SDS011;52872;52.994;6.940;2023-02-05T05:35:00;52.55;;;19.33;;
66087;SDS011;52872;52.994;6.940;2023-02-05T05:37:27;51.85;;;19.50;;
66087;SDS011;52872;52.994;6.940;2023-02-05T05:39:54;54.85;;;21.42;;
66087;SDS011;52872;52.994;6.940;2023-02-05T05:42:39;48.60;;;19.55;;
66087;SDS011;52872;52.994;6.940;2023-02-05T05:45:25;43.70;;;20.38;;
66087;SDS011;52872;52.994;6.940;2023-02-05T05:47:52;48.88;;;20.08;;
66087;SDS011;52872;52.994;6.940;2023-02-05T05:50:20;41.13;;;17.88;;
66087;SDS011;52872;52.994;6.940;2023-02-05T05:52:50;41.25;;;18.52;;
66087;SDS011;52872;52.994;6.940;2023-02-05T05:55:17;37.38;;;18.00;;
66087;SDS011;52872;52.994;6.940;2023-02-05T05:57:46;46.60;;;20.08;;
66087;SDS011;52872;52.994;6.940;2023-02-05T06:00:13;38.42;;;19.25;;
66087;SDS011;52872;52.994;6.940;2023-02-05T06:02:40;45.20;;;18.60;;
66087;SDS011;52872;52.994;6.940;2023-02-05T06:05:10;55.08;;;19.75;;
66087;SDS011;52872;52.994;6.940;2023-02-05T06:07:38;39.92;;;19.13;;
66087;SDS011;52872;52.994;6.940;2023-02-05T06:10:05;41.53;;;18.77;;
66087;SDS011;52872;52.994;6.940;2023-02-05T06:12:33;44.35;;;19.45;;
66087;SDS011;52872;52.994;6.940;2023-02-05T06:14:59;43.42;;;19.13;;
66087;SDS011;52872;52.994;6.940;2023-02-05T06:17:26;37.38;;;17.27;;
66087;SDS011;52872;52.994;6.940;2023-02-05T06:19:53;35.63;;;17.67;;
66087;SDS011;52872;52.994;6.940;2023-02-05T06:22:20;38.70;;;19.30;;
66087;SDS011;52872;52.994;6.940;2023-02-05T06:24:47;35.28;;;14.65;;
66087;SDS011;52872;52.994;6.940;2023-02-05T06:27:14;26.77;;;12.18;;
66087;SDS011;52872;52.994;6.940;2023-02-05T06:29:41;14.13;;;7.85;;
66087;SDS011;52872;52.994;6.940;2023-02-05T06:32:08;8.70;;;4.95;;
66087;SDS011;52872;52.994;6.940;2023-02-05T06:34:35;10.52;;;4.45;;
66087;SDS011;52872;52.994;6.940;2023-02-05T06:37:02;10.85;;;4.80;;
66087;SDS011;52872;52.994;6.940;2023-02-05T06:39:29;7.30;;;3.90;;
66087;SDS011;52872;52.994;6.940;2023-02-05T06:41:56;9.60;;;3.95;;
66087;SDS011;52872;52.994;6.940;2023-02-05T06:44:23;10.02;;;2.50;;
66087;SDS011;52872;52.994;6.940;2023-02-05T06:46:50;8.60;;;2.22;;
66087;SDS011;52872;52.994;6.940;2023-02-05T06:49:17;5.53;;;1.95;;
66087;SDS011;52872;52.994;6.940;2023-02-05T06:51:44;5.43;;;1.77;;
66087;SDS011;52872;52.994;6.940;2023-02-05T06:54:11;9.48;;;1.98;;
66087;SDS011;52872;52.994;6.940;2023-02-05T06:56:38;5.13;;;1.80;;
66087;SDS011;52872;52.994;6.940;2023-02-05T06:59:05;6.32;;;1.27;;
66087;SDS011;52872;52.994;6.940;2023-02-05T07:01:32;8.48;;;1.65;;
66087;SDS011;52872;52.994;6.940;2023-02-05T07:03:59;7.32;;;1.63;;
66087;SDS011;52872;52.994;6.940;2023-02-05T07:06:26;5.20;;;1.85;;
66087;SDS011;52872;52.994;6.940;2023-02-05T07:08:54;5.40;;;1.30;;
66087;SDS011;52872;52.994;6.940;2023-02-05T07:11:21;6.82;;;1.23;;
66087;SDS011;52872;52.994;6.940;2023-02-05T07:13:49;11.25;;;2.17;;
66087;SDS011;52872;52.994;6.940;2023-02-05T07:16:16;6.57;;;1.70;;
66087;SDS011;52872;52.994;6.940;2023-02-05T07:18:43;7.43;;;1.65;;
66087;SDS011;52872;52.994;6.940;2023-02-05T07:21:13;6.65;;;1.40;;
66087;SDS011;52872;52.994;6.940;2023-02-05T07:23:42;5.88;;;2.28;;
66087;SDS011;52872;52.994;6.940;2023-02-05T07:26:09;8.65;;;1.02;;
66087;SDS011;52872;52.994;6.940;2023-02-05T07:28:38;10.00;;;1.42;;
66087;SDS011;52872;52.994;6.940;2023-02-05T07:31:08;7.00;;;1.48;;
66087;SDS011;52872;52.994;6.940;2023-02-05T07:33:41;8.17;;;1.60;;
66087;SDS011;52872;52.994;6.940;2023-02-05T07:36:10;8.27;;;1.70;;
66087;SDS011;52872;52.994;6.940;2023-02-05T07:38:39;5.65;;;1.33;;
66087;SDS011;52872;52.994;6.940;2023-02-05T07:41:06;1.33;;;0.80;;
66087;SDS011;52872;52.994;6.940;2023-02-05T07:43:35;5.35;;;1.70;;
66087;SDS011;52872;52.994;6.940;2023-02-05T07:46:03;6.40;;;1.10;;
66087;SDS011;52872;52.994;6.940;2023-02-05T07:48:33;4.65;;;1.10;;
66087;SDS011;52872;52.994;6.940;2023-02-05T07:51:00;8.07;;;1.65;;
66087;SDS011;52872;52.994;6.940;2023-02-05T07:53:27;6.95;;;2.10;;
66087;SDS011;52872;52.994;6.940;2023-02-05T07:55:54;7.75;;;1.50;;
66087;SDS011;52872;52.994;6.940;2023-02-05T07:58:21;6.75;;;1.30;;
66087;SDS011;52872;52.994;6.940;2023-02-05T08:00:49;5.10;;;1.48;;
66087;SDS011;52872;52.994;6.940;2023-02-05T08:03:16;8.27;;;1.50;;
66087;SDS011;52872;52.994;6.940;2023-02-05T08:05:43;3.90;;;1.83;;
66087;SDS011;52872;52.994;6.940;2023-02-05T08:08:10;3.95;;;1.48;;
66087;SDS011;52872;52.994;6.940;2023-02-05T08:10:38;8.82;;;1.83;;
66087;SDS011;52872;52.994;6.940;2023-02-05T08:13:05;8.32;;;1.60;;
66087;SDS011;52872;52.994;6.940;2023-02-05T08:15:32;4.47;;;1.63;;
66087;SDS011;52872;52.994;6.940;2023-02-05T08:17:59;6.82;;;1.92;;
66087;SDS011;52872;52.994;6.940;2023-02-05T08:20:27;8.38;;;1.52;;
66087;SDS011;52872;52.994;6.940;2023-02-05T08:22:53;8.45;;;1.63;;
66087;SDS011;52872;52.994;6.940;2023-02-05T08:25:20;7.00;;;1.83;;
66087;SDS011;52872;52.994;6.940;2023-02-05T08:27:47;8.55;;;1.88;;
66087;SDS011;52872;52.994;6.940;2023-02-05T08:30:15;9.57;;;2.05;;
66087;SDS011;52872;52.994;6.940;2023-02-05T08:32:47;6.40;;;2.13;;
66087;SDS011;52872;52.994;6.940;2023-02-05T08:35:15;5.03;;;1.70;;
66087;SDS011;52872;52.994;6.940;2023-02-05T08:37:42;9.25;;;2.20;;
66087;SDS011;52872;52.994;6.940;2023-02-05T08:40:10;8.73;;;1.77;;
66087;SDS011;52872;52.994;6.940;2023-02-05T08:42:38;6.28;;;1.48;;
66087;SDS011;52872;52.994;6.940;2023-02-05T08:45:05;9.82;;;1.88;;
66087;SDS011;52872;52.994;6.940;2023-02-05T08:47:34;4.32;;;1.70;;
66087;SDS011;52872;52.994;6.940;2023-02-05T08:50:02;10.18;;;1.83;;
66087;SDS011;52872;52.994;6.940;2023-02-05T08:52:30;4.32;;;1.33;;
66087;SDS011;52872;52.994;6.940;2023-02-05T08:54:57;4.93;;;1.25;;
66087;SDS011;52872;52.994;6.940;2023-02-05T08:57:25;7.63;;;1.45;;
66087;SDS011;52872;52.994;6.940;2023-02-05T08:59:53;8.82;;;1.50;;
66087;SDS011;52872;52.994;6.940;2023-02-05T09:02:22;4.40;;;1.40;;
66087;SDS011;52872;52.994;6.940;2023-02-05T09:04:53;4.65;;;1.33;;
66087;SDS011;52872;52.994;6.940;2023-02-05T09:07:33;3.63;;;1.30;;
66087;SDS011;52872;52.994;6.940;2023-02-05T09:10:02;3.50;;;1.38;;
66087;SDS011;52872;52.994;6.940;2023-02-05T09:12:29;5.00;;;1.38;;
66087;SDS011;52872;52.994;6.940;2023-02-05T09:14:56;5.53;;;1.27;;
66087;SDS011;52872;52.994;6.940;2023-02-05T09:17:23;7.20;;;2.03;;
66087;SDS011;52872;52.994;6.940;2023-02-05T09:19:50;8.15;;;1.80;;
66087;SDS011;52872;52.994;6.940;2023-02-05T09:22:17;7.75;;;1.58;;
66087;SDS011;52872;52.994;6.940;2023-02-05T09:24:44;9.85;;;1.58;;
66087;SDS011;52872;52.994;6.940;2023-02-05T09:27:11;7.95;;;1.55;;
66087;SDS011;52872;52.994;6.940;2023-02-05T09:29:40;8.88;;;1.75;;
66087;SDS011;52872;52.994;6.940;2023-02-05T09:32:07;9.48;;;1.63;;
66087;SDS011;52872;52.994;6.940;2023-02-05T09:34:34;9.50;;;1.98;;
66087;SDS011;52872;52.994;6.940;2023-02-05T09:37:01;7.80;;;2.22;;
66087;SDS011;52872;52.994;6.940;2023-02-05T09:39:28;5.13;;;1.48;;
66087;SDS011;52872;52.994;6.940;2023-02-05T09:47:28;7.40;;;1.25;;
66087;SDS011;52872;52.994;6.940;2023-02-05T09:50:15;6.75;;;1.10;;
66087;SDS011;52872;52.994;6.940;2023-02-05T09:52:51;7.85;;;1.73;;
66087;SDS011;52872;52.994;6.940;2023-02-05T09:55:43;5.18;;;1.67;;
66087;SDS011;52872;52.994;6.940;2023-02-05T09:58:11;12.25;;;2.40;;
66087;SDS011;52872;52.994;6.940;2023-02-05T10:00:56;5.32;;;2.00;;
66087;SDS011;52872;52.994;6.940;2023-02-05T10:09:18;6.00;;;1.50;;
66087;SDS011;52872;52.994;6.940;2023-02-05T10:23:16;9.77;;;1.48;;
66087;SDS011;52872;52.994;6.940;2023-02-05T10:31:38;10.35;;;1.73;;
66087;SDS011;52872;52.994;6.940;2023-02-05T10:37:13;5.90;;;1.43;;
66087;SDS011;52872;52.994;6.940;2023-02-05T10:39:44;3.63;;;1.40;;
66087;SDS011;52872;52.994;6.940;2023-02-05T10:44:46;9.67;;;2.00;;
66087;SDS011;52872;52.994;6.940;2023-02-05T10:47:20;11.40;;;1.55;;
66087;SDS011;52872;52.994;6.940;2023-02-05T10:50:06;11.70;;;2.13;;
66087;SDS011;52872;52.994;6.940;2023-02-05T10:53:03;9.50;;;2.03;;
66087;SDS011;52872;52.994;6.940;2023-02-05T10:55:30;9.10;;;1.98;;
66087;SDS011;52872;52.994;6.940;2023-02-05T10:57:58;8.50;;;1.98;;
66087;SDS011;52872;52.994;6.940;2023-02-05T11:00:33;8.38;;;2.28;;
66087;SDS011;52872;52.994;6.940;2023-02-05T11:03:00;11.45;;;2.28;;
66087;SDS011;52872;52.994;6.940;2023-02-05T11:05:37;18.95;;;2.22;;
66087;SDS011;52872;52.994;6.940;2023-02-05T11:08:29;12.43;;;2.60;;
66087;SDS011;52872;52.994;6.940;2023-02-05T11:10:56;10.63;;;2.40;;
66087;SDS011;52872;52.994;6.940;2023-02-05T11:13:23;14.32;;;3.10;;
66087;SDS011;52872;52.994;6.940;2023-02-05T11:15:55;10.73;;;2.75;;
66087;SDS011;52872;52.994;6.940;2023-02-05T11:18:29;10.73;;;2.55;;
66087;SDS011;52872;52.994;6.940;2023-02-05T11:21:02;9.65;;;2.92;;
66087;SDS011;52872;52.994;6.940;2023-02-05T11:23:30;13.65;;;2.85;;
66087;SDS011;52872;52.994;6.940;2023-02-05T11:28:45;14.07;;;3.15;;
66087;SDS011;52872;52.994;6.940;2023-02-05T11:31:26;8.40;;;1.85;;
66087;SDS011;52872;52.994;6.940;2023-02-05T11:34:15;15.77;;;2.67;;
66087;SDS011;52872;52.994;6.940;2023-02-05T11:36:50;13.10;;;2.67;;
66087;SDS011;52872;52.994;6.940;2023-02-05T11:39:36;13.90;;;3.53;;
66087;SDS011;52872;52.994;6.940;2023-02-05T11:44:38;12.35;;;2.45;;
66087;SDS011;52872;52.994;6.940;2023-02-05T11:47:17;17.30;;;3.05;;
66087;SDS011;52872;52.994;6.940;2023-02-05T11:49:49;13.10;;;2.58;;
66087;SDS011;52872;52.994;6.940;2023-02-05T11:52:21;12.75;;;2.60;;
66087;SDS011;52872;52.994;6.940;2023-02-05T11:55:03;7.47;;;2.10;;
66087;SDS011;52872;52.994;6.940;2023-02-05T11:57:35;19.00;;;3.28;;
66087;SDS011;52872;52.994;6.940;2023-02-05T12:02:35;17.75;;;4.07;;
66087;SDS011;52872;52.994;6.940;2023-02-05T12:11:06;15.52;;;3.13;;
66087;SDS011;52872;52.994;6.940;2023-02-05T12:14:52;13.10;;;2.83;;
66087;SDS011;52872;52.994;6.940;2023-02-05T12:17:49;15.35;;;3.58;;
66087;SDS011;52872;52.994;6.940;2023-02-05T12:34:02;12.55;;;2.40;;
66087;SDS011;52872;52.994;6.940;2023-02-05T12:42:08;11.20;;;2.60;;
66087;SDS011;52872;52.994;6.940;2023-02-05T12:44:45;19.83;;;3.65;;
66087;SDS011;52872;52.994;6.940;2023-02-05T12:58:44;15.95;;;3.53;;
66087;SDS011;52872;52.994;6.940;2023-02-05T13:01:13;13.65;;;3.22;;
66087;SDS011;52872;52.994;6.940;2023-02-05T13:03:47;18.60;;;3.70;;
66087;SDS011;52872;52.994;6.940;2023-02-05T13:08:55;18.42;;;4.13;;
66087;SDS011;52872;52.994;6.940;2023-02-05T13:11:35;19.33;;;3.45;;
66087;SDS011;52872;52.994;6.940;2023-02-05T13:14:13;24.58;;;5.45;;
66087;SDS011;52872;52.994;6.940;2023-02-05T13:19:31;19.40;;;3.58;;
66087;SDS011;52872;52.994;6.940;2023-02-05T13:22:18;16.30;;;3.55;;
66087;SDS011;52872;52.994;6.940;2023-02-05T13:31:20;15.50;;;3.63;;
66087;SDS011;52872;52.994;6.940;2023-02-05T13:33:51;15.73;;;3.92;;
66087;SDS011;52872;52.994;6.940;2023-02-05T13:41:42;7.85;;;2.60;;
66087;SDS011;52872;52.994;6.940;2023-02-05T13:47:26;18.60;;;3.25;;
66087;SDS011;52872;52.994;6.940;2023-02-05T14:00:30;16.15;;;3.53;;
66087;SDS011;52872;52.994;6.940;2023-02-05T14:02:58;15.60;;;3.42;;
66087;SDS011;52872;52.994;6.940;2023-02-05T14:05:32;18.60;;;2.95;;
66087;SDS011;52872;52.994;6.940;2023-02-05T14:08:02;14.18;;;3.20;;
66087;SDS011;52872;52.994;6.940;2023-02-05T14:10:31;14.55;;;3.10;;
66087;SDS011;52872;52.994;6.940;2023-02-05T14:16:30;14.15;;;2.88;;
66087;SDS011;52872;52.994;6.940;2023-02-05T14:23:57;13.75;;;2.92;;
66087;SDS011;52872;52.994;6.940;2023-02-05T14:26:50;20.55;;;3.67;;
66087;SDS011;52872;52.994;6.940;2023-02-05T14:32:09;14.57;;;2.88;;
66087;SDS011;52872;52.994;6.940;2023-02-05T14:37:34;24.50;;;4.28;;
66087;SDS011;52872;52.994;6.940;2023-02-05T14:40:22;22.45;;;3.72;;
66087;SDS011;52872;52.994;6.940;2023-02-05T14:42:54;18.90;;;4.07;;
66087;SDS011;52872;52.994;6.940;2023-02-05T14:45:45;16.80;;;4.55;;
66087;SDS011;52872;52.994;6.940;2023-02-05T14:48:33;24.33;;;3.78;;
66087;SDS011;52872;52.994;6.940;2023-02-05T14:54:01;15.80;;;3.37;;
66087;SDS011;52872;52.994;6.940;2023-02-05T15:01:55;26.17;;;4.22;;
66087;SDS011;52872;52.994;6.940;2023-02-05T15:07:07;30.38;;;5.15;;
66087;SDS011;52872;52.994;6.940;2023-02-05T15:09:42;16.33;;;3.53;;
66087;SDS011;52872;52.994;6.940;2023-02-05T15:12:23;22.40;;;3.72;;
66087;SDS011;52872;52.994;6.940;2023-02-05T15:15:23;18.75;;;4.25;;
66087;SDS011;52872;52.994;6.940;2023-02-05T15:20:37;25.70;;;3.42;;
66087;SDS011;52872;52.994;6.940;2023-02-05T15:26:03;16.38;;;4.10;;
66087;SDS011;52872;52.994;6.940;2023-02-05T15:28:38;26.48;;;5.20;;
66087;SDS011;52872;52.994;6.940;2023-02-05T15:31:14;14.82;;;3.83;;
66087;SDS011;52872;52.994;6.940;2023-02-05T15:33:56;18.00;;;3.42;;
66087;SDS011;52872;52.994;6.940;2023-02-05T15:36:29;12.60;;;3.28;;
66087;SDS011;52872;52.994;6.940;2023-02-05T15:39:13;18.00;;;3.80;;
66087;SDS011;52872;52.994;6.940;2023-02-05T15:41:50;24.17;;;4.15;;
66087;SDS011;52872;52.994;6.940;2023-02-05T15:44:22;20.75;;;3.55;;
66087;SDS011;52872;52.994;6.940;2023-02-05T15:46:57;22.85;;;4.40;;
66087;SDS011;52872;52.994;6.940;2023-02-05T15:49:30;19.83;;;3.85;;
66087;SDS011;52872;52.994;6.940;2023-02-05T15:52:00;20.08;;;4.22;;
66087;SDS011;52872;52.994;6.940;2023-02-05T15:54:28;26.23;;;4.72;;
66087;SDS011;52872;52.994;6.940;2023-02-05T15:56:58;15.05;;;3.42;;
66087;SDS011;52872;52.994;6.940;2023-02-05T15:59:26;26.60;;;4.32;;
66087;SDS011;52872;52.994;6.940;2023-02-05T16:04:29;17.45;;;3.50;;
66087;SDS011;52872;52.994;6.940;2023-02-05T16:07:20;20.50;;;4.10;;
66087;SDS011;52872;52.994;6.940;2023-02-05T16:09:53;18.50;;;3.40;;
66087;SDS011;52872;52.994;6.940;2023-02-05T16:12:29;24.40;;;4.65;;
66087;SDS011;52872;52.994;6.940;2023-02-05T16:14:57;18.95;;;3.58;;
66087;SDS011;52872;52.994;6.940;2023-02-05T16:20:11;21.00;;;4.25;;
66087;SDS011;52872;52.994;6.940;2023-02-05T16:22:44;19.85;;;4.00;;
66087;SDS011;52872;52.994;6.940;2023-02-05T16:27:57;24.60;;;3.88;;
66087;SDS011;52872;52.994;6.940;2023-02-05T16:30:30;18.45;;;3.92;;
66087;SDS011;52872;52.994;6.940;2023-02-05T16:33:19;21.95;;;4.35;;
66087;SDS011;52872;52.994;6.940;2023-02-05T16:36:18;28.52;;;4.85;;
66087;SDS011;52872;52.994;6.940;2023-02-05T16:38:49;16.95;;;3.35;;
66087;SDS011;52872;52.994;6.940;2023-02-05T16:41:22;23.52;;;5.10;;
66087;SDS011;52872;52.994;6.940;2023-02-05T16:43:57;26.02;;;5.18;;
66087;SDS011;52872;52.994;6.940;2023-02-05T16:46:27;23.98;;;4.10;;
66087;SDS011;52872;52.994;6.940;2023-02-05T16:48:56;27.85;;;4.90;;
66087;SDS011;52872;52.994;6.940;2023-02-05T16:53:59;23.58;;;4.55;;
66087;SDS011;52872;52.994;6.940;2023-02-05T16:56:32;28.40;;;5.45;;
66087;SDS011;52872;52.994;6.940;2023-02-05T16:59:02;30.80;;;4.93;;
66087;SDS011;52872;52.994;6.940;2023-02-05T17:01:37;21.70;;;4.63;;
66087;SDS011;52872;52.994;6.940;2023-02-05T17:04:16;26.35;;;4.90;;
66087;SDS011;52872;52.994;6.940;2023-02-05T17:06:55;30.33;;;5.22;;
66087;SDS011;52872;52.994;6.940;2023-02-05T17:09:46;31.35;;;5.28;;
66087;SDS011;52872;52.994;6.940;2023-02-05T17:14:59;28.67;;;4.50;;
66087;SDS011;52872;52.994;6.940;2023-02-05T17:17:29;24.40;;;4.25;;
66087;SDS011;52872;52.994;6.940;2023-02-05T17:20:01;23.60;;;4.07;;
66087;SDS011;52872;52.994;6.940;2023-02-05T17:22:30;21.00;;;4.03;;
66087;SDS011;52872;52.994;6.940;2023-02-05T17:25:00;28.13;;;5.43;;
66087;SDS011;52872;52.994;6.940;2023-02-05T17:27:36;21.77;;;3.70;;
66087;SDS011;52872;52.994;6.940;2023-02-05T17:30:05;22.60;;;4.43;;
66087;SDS011;52872;52.994;6.940;2023-02-05T17:32:40;26.60;;;3.78;;
66087;SDS011;52872;52.994;6.940;2023-02-05T17:35:11;26.17;;;4.82;;
66087;SDS011;52872;52.994;6.940;2023-02-05T17:37:40;21.27;;;4.35;;
66087;SDS011;52872;52.994;6.940;2023-02-05T17:40:07;23.88;;;5.05;;
66087;SDS011;52872;52.994;6.940;2023-02-05T17:42:37;17.23;;;3.80;;
66087;SDS011;52872;52.994;6.940;2023-02-05T17:45:10;22.63;;;4.45;;
66087;SDS011;52872;52.994;6.940;2023-02-05T17:47:41;22.60;;;4.68;;
66087;SDS011;52872;52.994;6.940;2023-02-05T17:50:09;18.55;;;4.30;;
66087;SDS011;52872;52.994;6.940;2023-02-05T17:52:37;25.17;;;4.53;;
66087;SDS011;52872;52.994;6.940;2023-02-05T17:55:04;22.42;;;4.05;;
66087;SDS011;52872;52.994;6.940;2023-02-05T17:57:31;23.92;;;4.07;;
66087;SDS011;52872;52.994;6.940;2023-02-05T18:00:00;23.73;;;3.88;;
66087;SDS011;52872;52.994;6.940;2023-02-05T18:02:37;25.42;;;4.25;;
66087;SDS011;52872;52.994;6.940;2023-02-05T18:05:04;20.77;;;3.25;;